Saturday, November 18, 2017, 4:35 PM EST
Back to Local

KAUG, Augusta State Airport

Location: Augusta, ME, United States Lat: 44.317
Local Time: 4:35 PM EST (21:35 GMT) Lon: -69.8
Time Zone: US/Eastern Elev: 351 ft

Show me the last for .
Show Coded

Time T Td Feel RH Dir Speed Gust Alt SLP Vis Weather Sky Remarks
2017-11-18 15:53 38 12 33 33 180° 6 - 29.75 29.77 10 FEW095 OVC120 None
2017-11-18 14:53 39 11 35 30 170° 6 - 29.76 29.77 10 BKN120 None
2017-11-18 13:53 40 9 36 27 160° 6 - 29.80 29.81 10 FEW120 None
2017-11-18 12:53 39 10 37 29 140° 3 - 29.81 29.82 10 CLR 6-hr Min Temp (1pm): 24.1°F
6-hr Max Temp (1pm): 39.9°F
2017-11-18 11:53 40 10 37 28 Variable 5 - 29.85 29.86 10 CLR None
2017-11-18 10:53 36 11 33 34 150° 3 - 29.88 29.89 10 CLR None
2017-11-18 09:53 33 14 30 44 150° 3 - 29.92 29.93 10 CLR None
2017-11-18 08:53 32 12 - 42 - Calm - 29.92 29.93 10 CLR None
2017-11-18 07:53 27 14 23 57 220° 3 - 29.93 29.94 10 CLR None
2017-11-18 06:53 24 12 17 59 300° 6 - 29.92 29.94 10 CLR 6-hr Min Temp (7am): 23.0°F
6-hr Max Temp (7am): 27.0°F
2017-11-18 05:53 23 13 17 64 50° 5 - 29.91 29.92 10 CLR None
2017-11-18 04:53 25 12 - 57 - Calm - 29.91 29.93 10 CLR None
2017-11-18 03:53 26 12 22 54 Variable 3 - 29.92 29.93 10 CLR None
2017-11-18 02:53 26 13 16 56 280° 10 - 29.92 29.93 10 CLR None
2017-11-18 01:53 26 14 19 59 260° 6 - 29.93 29.94 10 CLR None
2017-11-18 00:53 27 14 14 57 270° 13 20 29.91 29.92 10 CLR 6-hr Min Temp (1am): 27.0°F
6-hr Max Temp (1am): 28.0°F
2017-11-17 23:53 27 15 13 60 290° 12 22 29.91 29.92 10 CLR 24-hr Min Temp (12am): 27.0°F
24-hr Max Temp (12am): 39.0°F
2017-11-17 22:53 28 15 13 57 270° 15 26 29.90 29.91 10 CLR None
2017-11-17 21:53 28 16 21 60 260° 7 - 29.89 29.90 10 CLR None
2017-11-17 20:53 27 17 20 65 290° 6 - 29.90 29.91 10 CLR None
2017-11-17 19:53 28 17 24 62 280° 3 - 29.90 29.91 10 CLR None
2017-11-17 18:53 28 17 22 62 290° 6 - 29.88 29.89 10 CLR 6-hr Min Temp (7pm): 28.0°F
6-hr Max Temp (7pm): 39.0°F
2017-11-17 17:53 29 17 22 60 310° 7 - 29.87 29.88 10 CLR None
2017-11-17 16:53 30 18 18 60 310° 13 18 29.86 29.87 10 CLR None

Support USWX by starting your Amazon purchase here.